^^
Saratoga-Weather Station Historical Data
Daily Summary for July 27, 2021 Units:  Metric    English   Both
Daily Weekly Monthly Yearly Custom
  High: Low: Average:
Temperature: 26.1 °C 15.8 °C 20.9 °C
Dew Point: 19.8 °C 13.6 °C 16.6 °C
Humidity: 89% 63% 77%
Wind Speed: 9.7km/h 0km/h 1.2km/h
Wind Gust: 14.5km/h - -
Wind- - SSE
Pressure: 1015.2 hPa 1010.8 hPa -
Precipitation: 0.0 mm    
Historical Graphs
 
 
Tabular Data for July 27, 2021
Time Temperature Dew Point Pressure Wind Wind Speed Wind Gust Humidity Rainfall Rate (Hourly) solar
00:01 18.1 °C 14.2 °C 1015.2 hPa Calm     78% 0.0 mm 0 W/m2
00:06 18.1 °C 14.4 °C 1015.2 hPa Calm     79% 0.0 mm 0 W/m2
00:11 17.9 °C 14.2 °C 1015.2 hPa Calm     79% 0.0 mm 0 W/m2
00:16 17.9 °C 14.4 °C 1014.9 hPa Calm     80% 0.0 mm 0 W/m2
00:21 17.8 °C 14.3 °C 1014.9 hPa Calm   1.6 km/h 80% 0.0 mm 0 W/m2
00:26 17.8 °C 14.3 °C 1014.9 hPa Calm   3.2 km/h 80% 0.0 mm 0 W/m2
00:31 17.7 °C 14.2 °C 1014.9 hPa Calm     80% 0.0 mm 0 W/m2
00:36 17.7 °C 14.2 °C 1014.9 hPa SSW 1.4 km/h 3.2 km/h 80% 0.0 mm 0 W/m2
00:41 17.7 °C 14.4 °C 1014.9 hPa Calm   3.2 km/h 81% 0.0 mm 0 W/m2
00:46 17.6 °C 14.3 °C 1014.9 hPa Calm   1.6 km/h 81% 0.0 mm 0 W/m2
00:51 17.4 °C 14.1 °C 1014.9 hPa Calm   3.2 km/h 81% 0.0 mm 0 W/m2
00:56 17.3 °C 14.2 °C 1014.9 hPa Calm   1.6 km/h 82% 0.0 mm 0 W/m2
01:01 17.3 °C 14.2 °C 1014.9 hPa SSW 1.4 km/h 1.6 km/h 82% 0.0 mm 0 W/m2
01:06 17.2 °C 14.1 °C 1014.6 hPa Calm     82% 0.0 mm 0 W/m2
01:11 17.1 °C 14 °C 1014.6 hPa Calm   1.6 km/h 82% 0.0 mm 0 W/m2
01:16 17 °C 14.1 °C 1014.6 hPa Calm     83% 0.0 mm 0 W/m2
01:21 16.9 °C 14 °C 1014.9 hPa Calm   1.6 km/h 83% 0.0 mm 0 W/m2
01:26 16.8 °C 13.9 °C 1014.6 hPa Calm     83% 0.0 mm 0 W/m2
01:31 16.8 °C 13.9 °C 1014.6 hPa Calm     83% 0.0 mm 0 W/m2
01:36 16.7 °C 14 °C 1014.6 hPa SSW 1.4 km/h 3.2 km/h 84% 0.0 mm 0 W/m2
01:41 16.7 °C 14 °C 1014.6 hPa SSW 1.4 km/h 1.6 km/h 84% 0.0 mm 0 W/m2
01:46 16.7 °C 14 °C 1014.6 hPa Calm   3.2 km/h 84% 0.0 mm 0 W/m2
01:51 16.7 °C 14 °C 1014.6 hPa Calm     84% 0.0 mm 0 W/m2
01:56 16.7 °C 14 °C 1014.6 hPa Calm   1.6 km/h 84% 0.0 mm 0 W/m2
02:01 16.7 °C 14 °C 1014.6 hPa Calm     84% 0.0 mm 0 W/m2
02:06 16.7 °C 14 °C 1014.6 hPa SSW 1.4 km/h 3.2 km/h 84% 0.0 mm 0 W/m2
02:11 16.7 °C 14 °C 1014.6 hPa Calm   3.2 km/h 84% 0.0 mm 0 W/m2
02:16 16.6 °C 13.9 °C 1014.6 hPa Calm   1.6 km/h 84% 0.0 mm 0 W/m2
02:21 16.6 °C 13.9 °C 1014.6 hPa Calm     84% 0.0 mm 0 W/m2
02:26 16.5 °C 14 °C 1014.6 hPa Calm     85% 0.0 mm 0 W/m2
02:31 16.4 °C 13.9 °C 1014.6 hPa Calm     85% 0.0 mm 0 W/m2
02:36 16.4 °C 13.9 °C 1014.6 hPa SSW 1.4 km/h 1.6 km/h 85% 0.0 mm 0 W/m2
02:41 16.3 °C 14 °C 1014.9 hPa SSW 1.4 km/h 3.2 km/h 86% 0.0 mm 0 W/m2
02:46 16.3 °C 14 °C 1014.6 hPa Calm     86% 0.0 mm 0 W/m2
02:51 16.3 °C 14 °C 1014.6 hPa Calm     86% 0.0 mm 0 W/m2
02:56 16.4 °C 14.1 °C 1014.6 hPa Calm   1.6 km/h 86% 0.0 mm 0 W/m2
03:01 16.4 °C 14.1 °C 1014.6 hPa Calm     86% 0.0 mm 0 W/m2
03:06 16.4 °C 14.1 °C 1014.6 hPa SSW 1.4 km/h 1.6 km/h 86% 0.0 mm 0 W/m2
03:11 16.4 °C 14.1 °C 1014.6 hPa Calm   1.6 km/h 86% 0.0 mm 0 W/m2
03:16 16.5 °C 14.1 °C 1014.6 hPa SSW 1.4 km/h 1.6 km/h 86% 0.0 mm 0 W/m2
03:21 16.6 °C 14.2 °C 1014.2 hPa Calm   1.6 km/h 86% 0.0 mm 0 W/m2
03:26 16.6 °C 14.1 °C 1014.2 hPa SW 1.4 km/h 1.6 km/h 85% 0.0 mm 0 W/m2
03:31 16.6 °C 14.1 °C 1014.2 hPa SW 3.2 km/h 3.2 km/h 85% 0.0 mm 0 W/m2
03:36 16.6 °C 14.1 °C 1014.2 hPa Calm     85% 0.0 mm 0 W/m2
03:41 16.6 °C 14.1 °C 1014.2 hPa SW 3.2 km/h 3.2 km/h 85% 0.0 mm 0 W/m2
03:46 16.7 °C 14.2 °C 1014.2 hPa Calm     85% 0.0 mm 0 W/m2
03:51 16.6 °C 14.1 °C 1014.2 hPa SW 1.4 km/h 3.2 km/h 85% 0.0 mm 0 W/m2
03:56 16.7 °C 14.2 °C 1014.2 hPa SW 1.4 km/h 3.2 km/h 85% 0.0 mm 0 W/m2
04:01 16.7 °C 14 °C 1014.2 hPa SSW 1.4 km/h 3.2 km/h 84% 0.0 mm 0 W/m2
04:06 16.7 °C 14 °C 1013.9 hPa Calm     84% 0.0 mm 0 W/m2
04:11 16.7 °C 14 °C 1013.9 hPa Calm   3.2 km/h 84% 0.0 mm 0 W/m2
04:16 16.6 °C 13.9 °C 1013.9 hPa SSW 1.4 km/h 1.6 km/h 84% 0.0 mm 0 W/m2
04:21 16.6 °C 14.1 °C 1013.9 hPa SSW 1.4 km/h 1.6 km/h 85% 0.0 mm 0 W/m2
04:26 16.4 °C 13.9 °C 1013.5 hPa Calm     85% 0.0 mm 0 W/m2
04:31 16.4 °C 13.9 °C 1013.5 hPa Calm     85% 0.0 mm 0 W/m2
04:36 16.4 °C 13.9 °C 1013.5 hPa Calm     85% 0.0 mm 0 W/m2
04:41 16.4 °C 13.9 °C 1013.5 hPa Calm     85% 0.0 mm 0 W/m2
04:47 16.4 °C 13.9 °C 1013.5 hPa Calm     85% 0.0 mm 0 W/m2
04:52 16.3 °C 13.8 °C 1013.5 hPa Calm     85% 0.0 mm 0 W/m2
04:57 16.3 °C 13.8 °C 1013.5 hPa Calm   1.6 km/h 85% 0.0 mm 0 W/m2
05:02 16.2 °C 13.7 °C 1013.5 hPa Calm     85% 0.0 mm 0 W/m2
05:07 16.2 °C 13.9 °C 1013.5 hPa Calm     86% 0.0 mm 0 W/m2
05:12 16.2 °C 13.9 °C 1013.5 hPa Calm     86% 0.0 mm 0 W/m2
05:17 16.1 °C 13.8 °C 1013.2 hPa Calm     86% 0.0 mm 0 W/m2
05:22 16.1 °C 13.8 °C 1013.2 hPa Calm     86% 0.0 mm 0 W/m2
05:27 15.9 °C 13.6 °C 1013.2 hPa Calm     86% 0.0 mm 0 W/m2
05:32 15.9 °C 13.7 °C 1013.2 hPa Calm     87% 0.0 mm 0 W/m2
05:37 15.9 °C 13.7 °C 1013.2 hPa Calm     87% 0.0 mm 0 W/m2
05:42 15.8 °C 13.6 °C 1013.2 hPa Calm     87% 0.0 mm 7 W/m2
05:47 15.8 °C 13.6 °C 1013.2 hPa Calm     87% 0.0 mm 9 W/m2
05:52 15.8 °C 13.6 °C 1013.2 hPa Calm     87% 0.0 mm 11 W/m2
05:57 15.8 °C 13.6 °C 1013.5 hPa Calm     87% 0.0 mm 14 W/m2
06:02 15.9 °C 13.7 °C 1013.2 hPa Calm     87% 0.0 mm 16 W/m2
06:07 15.9 °C 13.7 °C 1013.2 hPa Calm     87% 0.0 mm 21 W/m2
06:12 15.9 °C 13.9 °C 1013.2 hPa Calm     88% 0.0 mm 23 W/m2
06:17 15.9 °C 13.9 °C 1013.2 hPa Calm     88% 0.0 mm 26 W/m2
06:22 15.9 °C 13.9 °C 1013.2 hPa Calm     88% 0.0 mm 28 W/m2
06:27 16 °C 14 °C 1013.2 hPa Calm     88% 0.0 mm 32 W/m2
06:32 16 °C 14 °C 1013.2 hPa Calm     88% 0.0 mm 33 W/m2
06:37 16.1 °C 14.1 °C 1012.9 hPa Calm     88% 0.0 mm 40 W/m2
06:42 16.1 °C 14.1 °C 1012.9 hPa Calm     88% 0.0 mm 49 W/m2
06:47 16.2 °C 14.2 °C 1012.9 hPa Calm     88% 0.0 mm 63 W/m2
06:52 16.2 °C 14.2 °C 1012.9 hPa Calm     88% 0.0 mm 72 W/m2
06:57 16.3 °C 14.3 °C 1012.9 hPa Calm     88% 0.0 mm 81 W/m2
07:02 16.4 °C 14.4 °C 1012.9 hPa Calm     88% 0.0 mm 81 W/m2
07:07 16.6 °C 14.8 °C 1013.2 hPa Calm     89% 0.0 mm 76 W/m2
07:12 16.7 °C 14.7 °C 1012.9 hPa Calm     88% 0.0 mm 76 W/m2
07:17 16.8 °C 14.6 °C 1013.2 hPa Calm     87% 0.0 mm 77 W/m2
07:22 16.9 °C 14.7 °C 1013.2 hPa Calm     87% 0.0 mm 74 W/m2
07:27 17 °C 14.8 °C 1013.2 hPa Calm     87% 0.0 mm 70 W/m2
07:32 17.1 °C 14.7 °C 1013.2 hPa Calm     86% 0.0 mm 114 W/m2
07:37 17.2 °C 14.8 °C 1013.2 hPa Calm     86% 0.0 mm 163 W/m2
07:42 17.4 °C 14.7 °C 1013.2 hPa Calm   3.2 km/h 84% 0.0 mm 200 W/m2
07:47 17.8 °C 14.9 °C 1013.2 hPa Calm   3.2 km/h 83% 0.0 mm 295 W/m2
07:52 18.3 °C 14.8 °C 1013.2 hPa Calm   1.6 km/h 80% 0.0 mm 160 W/m2
07:57 18.6 °C 14.9 °C 1013.2 hPa Calm   3.2 km/h 79% 0.0 mm 181 W/m2
08:02 18.9 °C 15 °C 1013.5 hPa ESE 1.4 km/h 4.8 km/h 78% 0.0 mm 204 W/m2
08:07 19.2 °C 15.1 °C 1013.5 hPa East 6.4 km/h 6.4 km/h 77% 0.0 mm 141 W/m2
08:12 19.3 °C 14.8 °C 1013.5 hPa East 1.4 km/h 1.6 km/h 75% 0.0 mm 151 W/m2
08:17 19.3 °C 15 °C 1013.5 hPa East 1.4 km/h 3.2 km/h 76% 0.0 mm 169 W/m2
08:22 19.4 °C 15.1 °C 1013.5 hPa Calm   1.6 km/h 76% 0.0 mm 176 W/m2
08:27 19.5 °C 15.2 °C 1013.9 hPa Calm     76% 0.0 mm 185 W/m2
08:32 19.7 °C 15.6 °C 1013.9 hPa ENE 3.2 km/h 3.2 km/h 77% 0.0 mm 193 W/m2
08:37 19.8 °C 15.2 °C 1013.5 hPa NE 1.4 km/h 1.6 km/h 75% 0.0 mm 197 W/m2
08:42 19.9 °C 15.1 °C 1013.5 hPa NE 1.4 km/h 3.2 km/h 74% 0.0 mm 200 W/m2
08:47 20.1 °C 15.3 °C 1013.5 hPa Calm   3.2 km/h 74% 0.0 mm 195 W/m2
08:52 20.2 °C 15.2 °C 1013.5 hPa NE 1.4 km/h 3.2 km/h 73% 0.0 mm 174 W/m2
08:57 20.3 °C 15.3 °C 1013.5 hPa NNE 1.4 km/h 4.8 km/h 73% 0.0 mm 163 W/m2
09:02 20.3 °C 15.3 °C 1013.5 hPa Calm   3.2 km/h 73% 0.0 mm 195 W/m2
09:07 20.4 °C 15.4 °C 1013.5 hPa NNE 3.2 km/h 8 km/h 73% 0.0 mm 237 W/m2
09:13 20.5 °C 15.7 °C 1013.2 hPa NE 3.2 km/h 3.2 km/h 74% 0.0 mm 253 W/m2
09:18 20.6 °C 15.6 °C 1013.2 hPa Calm   8 km/h 73% 0.0 mm 251 W/m2
09:23 20.7 °C 15.7 °C 1012.9 hPa Calm   6.4 km/h 73% 0.0 mm 223 W/m2
09:28 20.7 °C 15.7 °C 1012.9 hPa North 4.7 km/h 4.8 km/h 73% 0.0 mm 209 W/m2
09:33 20.7 °C 15.7 °C 1012.9 hPa East 3.2 km/h 6.4 km/h 73% 0.0 mm 209 W/m2
09:38 20.6 °C 15.6 °C 1012.9 hPa ENE 3.2 km/h 6.4 km/h 73% 0.0 mm 211 W/m2
09:43 20.6 °C 15.8 °C 1012.9 hPa ESE 1.4 km/h 4.8 km/h 74% 0.0 mm 251 W/m2
09:48 20.6 °C 15.8 °C 1012.9 hPa ESE 3.2 km/h 4.8 km/h 74% 0.0 mm 362 W/m2
09:53 20.8 °C 16 °C 1012.9 hPa NE 4.7 km/h 6.4 km/h 74% 0.0 mm 408 W/m2
09:58 21.1 °C 16.1 °C 1012.9 hPa NE 1.4 km/h 4.8 km/h 73% 0.0 mm 408 W/m2
10:03 21.3 °C 16.3 °C 1012.9 hPa SE 3.2 km/h 8 km/h 73% 0.0 mm 443 W/m2
10:08 21.5 °C 16.2 °C 1012.9 hPa Calm   4.8 km/h 72% 0.0 mm 429 W/m2
10:13 21.7 °C 16.6 °C 1012.9 hPa SE 3.2 km/h 8 km/h 73% 0.0 mm 323 W/m2
10:18 21.9 °C 16.4 °C 1012.9 hPa NE 1.4 km/h 3.2 km/h 71% 0.0 mm 378 W/m2
10:23 22.1 °C 16.6 °C 1012.9 hPa ENE 1.4 km/h 6.4 km/h 71% 0.0 mm 313 W/m2
10:28 22.2 °C 16.9 °C 1012.9 hPa SE 1.4 km/h 4.8 km/h 72% 0.0 mm 387 W/m2
10:33 22.3 °C 17 °C 1012.9 hPa East 1.4 km/h 6.4 km/h 72% 0.0 mm 417 W/m2
10:38 22.5 °C 17.2 °C 1012.9 hPa East 3.2 km/h 6.4 km/h 72% 0.0 mm 487 W/m2
10:43 22.7 °C 16.9 °C 1012.9 hPa ESE 4.7 km/h 4.8 km/h 70% 0.0 mm 329 W/m2
10:48 22.8 °C 16.8 °C 1012.9 hPa East 1.4 km/h 4.8 km/h 69% 0.0 mm 522 W/m2
10:53 22.9 °C 17.1 °C 1012.9 hPa ENE 3.2 km/h 6.4 km/h 70% 0.0 mm 492 W/m2
10:58 23.2 °C 17.4 °C 1012.9 hPa NE 3.2 km/h 9.7 km/h 70% 0.0 mm 496 W/m2
11:03 23.4 °C 17.4 °C 1012.5 hPa SE 1.4 km/h 3.2 km/h 69% 0.0 mm 520 W/m2
11:08 23.5 °C 17 °C 1012.9 hPa ENE 3.2 km/h 6.4 km/h 67% 0.0 mm 571 W/m2
11:13 23.6 °C 17.6 °C 1012.5 hPa ESE 3.2 km/h 3.2 km/h 69% 0.0 mm 487 W/m2
11:18 23.8 °C 17.8 °C 1012.9 hPa East 1.4 km/h 4.8 km/h 69% 0.0 mm 566 W/m2
11:23 23.9 °C 17.4 °C 1012.5 hPa East 1.4 km/h 3.2 km/h 67% 0.0 mm 497 W/m2
11:28 24 °C 17.3 °C 1012.5 hPa North 1.4 km/h 4.8 km/h 66% 0.0 mm 622 W/m2
11:33 24.3 °C 17.3 °C 1012.5 hPa Calm   3.2 km/h 65% 0.0 mm 719 W/m2
11:38 24.6 °C 17.8 °C 1012.5 hPa ESE 4.7 km/h 6.4 km/h 66% 0.0 mm 543 W/m2
11:43 24.6 °C 17.3 °C 1012.5 hPa East 3.2 km/h 6.4 km/h 64% 0.0 mm 459 W/m2
11:48 24.6 °C 17.6 °C 1012.5 hPa Calm   4.8 km/h 65% 0.0 mm 408 W/m2
11:53 24.6 °C 17.8 °C 1012.5 hPa ENE 1.4 km/h 6.4 km/h 66% 0.0 mm 431 W/m2
11:58 24.6 °C 17.8 °C 1012.5 hPa Calm   3.2 km/h 66% 0.0 mm 432 W/m2
12:03 24.7 °C 17.9 °C 1012.5 hPa East 6.4 km/h 6.4 km/h 66% 0.0 mm 429 W/m2
12:08 24.7 °C 17.7 °C 1012.5 hPa NE 3.2 km/h 6.4 km/h 65% 0.0 mm 473 W/m2
12:13 24.6 °C 17.6 °C 1012.5 hPa West 1.4 km/h 4.8 km/h 65% 0.0 mm 439 W/m2
12:18 24.6 °C 18.1 °C 1012.9 hPa Calm   6.4 km/h 67% 0.0 mm 353 W/m2
12:23 24.6 °C 17.8 °C 1012.5 hPa ENE 3.2 km/h 6.4 km/h 66% 0.0 mm 306 W/m2
12:28 24.4 °C 17.9 °C 1012.5 hPa ESE 1.4 km/h 3.2 km/h 67% 0.0 mm 334 W/m2
12:33 24.4 °C 17.6 °C 1012.5 hPa Calm   3.2 km/h 66% 0.0 mm 279 W/m2
12:38 24.2 °C 17.4 °C 1012.5 hPa WNW 3.2 km/h 4.8 km/h 66% 0.0 mm 281 W/m2
12:43 24.1 °C 17.3 °C 1012.5 hPa WNW 1.4 km/h 3.2 km/h 66% 0.0 mm 287 W/m2
12:48 24 °C 17.7 °C 1012.5 hPa West 1.4 km/h 3.2 km/h 68% 0.0 mm 244 W/m2
12:53 24 °C 17.7 °C 1012.5 hPa West 1.4 km/h 3.2 km/h 68% 0.0 mm 193 W/m2
12:58 23.9 °C 17.6 °C 1012.5 hPa Calm   1.6 km/h 68% 0.0 mm 160 W/m2
13:03 23.9 °C 18.1 °C 1012.5 hPa Calm     70% 0.0 mm 151 W/m2
13:08 24 °C 18.4 °C 1012.5 hPa Calm   1.6 km/h 71% 0.0 mm 118 W/m2
13:13 24.1 °C 19.2 °C 1012.5 hPa Calm     74% 0.0 mm 174 W/m2
13:18 23.8 °C 18.7 °C 1012.9 hPa West 3.2 km/h 3.2 km/h 73% 0.0 mm 174 W/m2
13:23 23.6 °C 18.7 °C 1012.9 hPa WSW 7.9 km/h 8 km/h 74% 0.0 mm 169 W/m2
13:28 23.3 °C 18.4 °C 1012.9 hPa West 1.4 km/h 4.8 km/h 74% 0.0 mm 183 W/m2
13:33 23.2 °C 18.3 °C 1012.9 hPa West 4.7 km/h 6.4 km/h 74% 0.0 mm 153 W/m2
13:38 23.1 °C 18.6 °C 1013.2 hPa WSW 7.9 km/h 8 km/h 76% 0.0 mm 120 W/m2
13:43 22.9 °C 18.4 °C 1012.9 hPa West 4.7 km/h 14.5 km/h 76% 0.0 mm 171 W/m2
13:48 22.7 °C 18.9 °C 1012.9 hPa West 1.4 km/h 3.2 km/h 79% 0.0 mm 218 W/m2
13:53 22.6 °C 18.6 °C 1012.9 hPa WNW 1.4 km/h 6.4 km/h 78% 0.0 mm 218 W/m2
13:58 22.5 °C 18.5 °C 1012.9 hPa WNW 6.4 km/h 8 km/h 78% 0.0 mm 197 W/m2
14:03 22.4 °C 18.4 °C 1012.9 hPa WNW 3.2 km/h 4.8 km/h 78% 0.0 mm 167 W/m2
14:08 22.4 °C 18.6 °C 1012.9 hPa NW 4.7 km/h 8 km/h 79% 0.0 mm 179 W/m2
14:13 22.4 °C 18.6 °C 1012.5 hPa Calm   1.6 km/h 79% 0.0 mm 204 W/m2
14:18 22.5 °C 18.5 °C 1012.5 hPa NNW 3.2 km/h 4.8 km/h 78% 0.0 mm 257 W/m2
14:23 22.6 °C 18.8 °C 1012.5 hPa WSW 3.2 km/h 4.8 km/h 79% 0.0 mm 311 W/m2
14:28 22.7 °C 18.7 °C 1012.5 hPa WNW 3.2 km/h 4.8 km/h 78% 0.0 mm 288 W/m2
14:33 22.8 °C 18.3 °C 1012.5 hPa Calm   3.2 km/h 76% 0.0 mm 299 W/m2
14:38 22.9 °C 18.7 °C 1012.5 hPa West 4.7 km/h 6.4 km/h 77% 0.0 mm 388 W/m2
14:43 23 °C 18.3 °C 1012.5 hPa NW 1.4 km/h 6.4 km/h 75% 0.0 mm 397 W/m2
14:48 23.1 °C 18.6 °C 1012.5 hPa WNW 1.4 km/h 3.2 km/h 76% 0.0 mm 330 W/m2
14:53 23.3 °C 18.8 °C 1012.5 hPa WNW 1.4 km/h 3.2 km/h 76% 0.0 mm 288 W/m2
14:58 23.4 °C 18.7 °C 1012.5 hPa Calm   1.6 km/h 75% 0.0 mm 352 W/m2
15:03 23.7 °C 18.6 °C 1012.5 hPa Calm   3.2 km/h 73% 0.0 mm 341 W/m2
15:08 23.8 °C 18.4 °C 1012.5 hPa NE 3.2 km/h 3.2 km/h 72% 0.0 mm 311 W/m2
15:13 23.9 °C 18.5 °C 1012.2 hPa Calm   4.8 km/h 72% 0.0 mm 267 W/m2
15:18 23.9 °C 18.5 °C 1012.2 hPa ENE 3.2 km/h 6.4 km/h 72% 0.0 mm 336 W/m2
15:23 23.9 °C 18.8 °C 1012.2 hPa Calm   4.8 km/h 73% 0.0 mm 425 W/m2
15:28 24 °C 18.9 °C 1012.5 hPa ENE 1.4 km/h 4.8 km/h 73% 0.0 mm 362 W/m2
15:33 24.1 °C 19 °C 1012.5 hPa SE 3.2 km/h 3.2 km/h 73% 0.0 mm 350 W/m2
15:38 24.2 °C 18.8 °C 1012.5 hPa North 1.4 km/h 8 km/h 72% 0.0 mm 439 W/m2
15:43 24.4 °C 18.6 °C 1012.5 hPa ENE 1.4 km/h 6.4 km/h 70% 0.0 mm 517 W/m2
15:48 24.6 °C 19 °C 1012.5 hPa East 1.4 km/h 8 km/h 71% 0.0 mm 323 W/m2
15:53 24.7 °C 19.1 °C 1012.5 hPa Calm   3.2 km/h 71% 0.0 mm 343 W/m2
15:58 24.9 °C 19.3 °C 1012.2 hPa Calm   3.2 km/h 71% 0.0 mm 323 W/m2
16:03 25 °C 19.1 °C 1012.5 hPa Calm   3.2 km/h 70% 0.0 mm 322 W/m2
16:08 25.2 °C 19.6 °C 1012.5 hPa Calm   1.6 km/h 71% 0.0 mm 281 W/m2
16:13 25.2 °C 19.6 °C 1012.5 hPa WSW 3.2 km/h 4.8 km/h 71% 0.0 mm 288 W/m2
16:18 25.1 °C 19 °C 1012.2 hPa NE 1.4 km/h 1.6 km/h 69% 0.0 mm 246 W/m2
16:23 25.1 °C 19.2 °C 1012.5 hPa SE 4.7 km/h 9.7 km/h 70% 0.0 mm 262 W/m2
16:28 25 °C 19.8 °C 1012.5 hPa ESE 1.4 km/h 3.2 km/h 73% 0.0 mm 415 W/m2
16:33 25 °C 19.1 °C 1012.5 hPa Calm   9.7 km/h 70% 0.0 mm 311 W/m2
16:38 25.1 °C 19 °C 1012.5 hPa WNW 3.2 km/h 6.4 km/h 69% 0.0 mm 397 W/m2
16:43 25 °C 18.9 °C 1012.5 hPa NE 4.7 km/h 11.3 km/h 69% 0.0 mm 243 W/m2
16:48 24.8 °C 18.5 °C 1012.5 hPa ENE 1.4 km/h 3.2 km/h 68% 0.0 mm 190 W/m2
16:53 24.7 °C 18.9 °C 1012.5 hPa ENE 1.4 km/h 4.8 km/h 70% 0.0 mm 262 W/m2
16:58 24.6 °C 19 °C 1012.5 hPa ENE 1.4 km/h 3.2 km/h 71% 0.0 mm 236 W/m2
17:03 24.6 °C 18.8 °C 1012.5 hPa Calm   4.8 km/h 70% 0.0 mm 236 W/m2
17:08 24.7 °C 19.1 °C 1012.5 hPa Calm   9.7 km/h 71% 0.0 mm 218 W/m2
17:13 24.5 °C 19.1 °C 1012.5 hPa Calm   11.3 km/h 72% 0.0 mm 213 W/m2
17:18 24.4 °C 19 °C 1012.2 hPa West 1.4 km/h 4.8 km/h 72% 0.0 mm 199 W/m2
17:23 24.3 °C 18.9 °C 1012.2 hPa SW 1.4 km/h 9.7 km/h 72% 0.0 mm 236 W/m2
17:28 24.3 °C 18.7 °C 1012.2 hPa East 1.4 km/h 11.3 km/h 71% 0.0 mm 388 W/m2
17:33 24.4 °C 19.2 °C 1012.2 hPa ESE 1.4 km/h 6.4 km/h 73% 0.0 mm 378 W/m2
17:38 24.5 °C 18.9 °C 1012.2 hPa SE 4.7 km/h 8 km/h 71% 0.0 mm 309 W/m2
17:43 24.6 °C 18.8 °C 1011.9 hPa East 3.2 km/h 6.4 km/h 70% 0.0 mm 304 W/m2
17:48 24.6 °C 18.8 °C 1011.9 hPa NNW 1.4 km/h 6.4 km/h 70% 0.0 mm 385 W/m2
17:53 24.7 °C 18.9 °C 1011.9 hPa ENE 3.2 km/h 11.3 km/h 70% 0.0 mm 348 W/m2
17:58 24.7 °C 18.9 °C 1011.9 hPa West 3.2 km/h 3.2 km/h 70% 0.0 mm 255 W/m2
18:03 24.6 °C 18.8 °C 1011.9 hPa ESE 4.7 km/h 11.3 km/h 70% 0.0 mm 221 W/m2
18:08 24.6 °C 19 °C 1011.9 hPa ESE 4.7 km/h 4.8 km/h 71% 0.0 mm 265 W/m2
18:13 24.6 °C 19.2 °C 1011.5 hPa East 3.2 km/h 4.8 km/h 72% 0.0 mm 413 W/m2
18:18 24.8 °C 19.6 °C 1011.5 hPa Calm   3.2 km/h 73% 0.0 mm 396 W/m2
18:23 24.9 °C 19.3 °C 1011.5 hPa WSW 3.2 km/h 4.8 km/h 71% 0.0 mm 183 W/m2
18:28 25 °C 19.6 °C 1011.5 hPa East 1.4 km/h 6.4 km/h 72% 0.0 mm 269 W/m2
18:33 25.2 °C 19.3 °C 1011.2 hPa East 3.2 km/h 3.2 km/h 70% 0.0 mm 325 W/m2
18:38 25.3 °C 19.2 °C 1011.2 hPa NE 4.7 km/h 6.4 km/h 69% 0.0 mm 132 W/m2
18:43 25.1 °C 19.2 °C 1011.2 hPa SE 1.4 km/h 6.4 km/h 70% 0.0 mm 125 W/m2
18:48 24.9 °C 19.3 °C 1011.2 hPa SSW 3.2 km/h 3.2 km/h 71% 0.0 mm 213 W/m2
18:53 25.1 °C 19.2 °C 1011.2 hPa Calm   1.6 km/h 70% 0.0 mm 390 W/m2
18:58 25.6 °C 19.3 °C 1010.8 hPa East 4.7 km/h 6.4 km/h 68% 0.0 mm 439 W/m2
19:03 25.9 °C 18.8 °C 1010.8 hPa ESE 3.2 km/h 6.4 km/h 65% 0.0 mm 392 W/m2
19:08 26.1 °C 18.8 °C 1010.8 hPa ENE 1.4 km/h 11.3 km/h 64% 0.0 mm 274 W/m2
19:13 25.9 °C 18.6 °C 1010.8 hPa ESE 1.4 km/h 6.4 km/h 64% 0.0 mm 269 W/m2
19:19 26 °C 18.4 °C 1010.8 hPa SE 4.7 km/h 11.3 km/h 63% 0.0 mm 239 W/m2
19:24 25.7 °C 18.4 °C 1010.8 hPa Calm   9.7 km/h 64% 0.0 mm 207 W/m2
19:29 25.6 °C 18.5 °C 1010.8 hPa ESE 4.7 km/h 11.3 km/h 65% 0.0 mm 195 W/m2
19:34 25.3 °C 18.7 °C 1011.2 hPa WNW 1.4 km/h 3.2 km/h 67% 0.0 mm 199 W/m2
19:39 25.3 °C 18.2 °C 1011.2 hPa East 3.2 km/h 11.3 km/h 65% 0.0 mm 105 W/m2
19:44 25.1 °C 18.3 °C 1011.2 hPa East 4.7 km/h 6.4 km/h 66% 0.0 mm 104 W/m2
19:49 24.9 °C 18.3 °C 1011.2 hPa Calm   4.8 km/h 67% 0.0 mm 114 W/m2
19:54 24.8 °C 18.5 °C 1011.2 hPa Calm   3.2 km/h 68% 0.0 mm 114 W/m2
19:59 24.7 °C 18.4 °C 1011.2 hPa ESE 9.7 km/h 9.7 km/h 68% 0.0 mm 77 W/m2
20:04 24.6 °C 18.1 °C 1010.8 hPa ENE 1.4 km/h 3.2 km/h 67% 0.0 mm 62 W/m2
20:09 24.5 °C 18.4 °C 1010.8 hPa North 1.4 km/h 3.2 km/h 69% 0.0 mm 62 W/m2
20:14 24.3 °C 18.5 °C 1011.2 hPa ESE 1.4 km/h 3.2 km/h 70% 0.0 mm 65 W/m2
20:19 24.1 °C 18.1 °C 1011.2 hPa East 3.2 km/h 3.2 km/h 69% 0.0 mm 63 W/m2
20:24 24 °C 18.2 °C 1011.2 hPa Calm   1.6 km/h 70% 0.0 mm 58 W/m2
20:29 23.9 °C 17.6 °C 1011.5 hPa Calm   6.4 km/h 68% 0.0 mm 51 W/m2
20:34 23.8 °C 17.8 °C 1011.5 hPa Calm   4.8 km/h 69% 0.0 mm 44 W/m2
20:39 23.8 °C 18.4 °C 1011.2 hPa Calm   6.4 km/h 72% 0.0 mm 39 W/m2
20:44 23.7 °C 18.6 °C 1011.2 hPa Calm   1.6 km/h 73% 0.0 mm 39 W/m2
20:49 23.4 °C 18.3 °C 1011.2 hPa South 3.2 km/h 3.2 km/h 73% 0.0 mm 33 W/m2
20:54 23.2 °C 18.5 °C 1011.5 hPa South 3.2 km/h 3.2 km/h 75% 0.0 mm 28 W/m2
20:59 22.9 °C 18 °C 1011.9 hPa South 1.4 km/h 3.2 km/h 74% 0.0 mm 23 W/m2
21:04 22.8 °C 18.1 °C 1011.9 hPa Calm   1.6 km/h 75% 0.0 mm 21 W/m2
21:09 22.7 °C 18.2 °C 1011.9 hPa Calm   1.6 km/h 76% 0.0 mm 18 W/m2
21:14 22.5 °C 18.3 °C 1011.9 hPa Calm   1.6 km/h 77% 0.0 mm 14 W/m2
21:19 22.3 °C 18.1 °C 1012.2 hPa Calm   1.6 km/h 77% 0.0 mm 11 W/m2
21:24 22.2 °C 18.2 °C 1012.2 hPa Calm   1.6 km/h 78% 0.0 mm 7 W/m2
21:29 22 °C 18.2 °C 1012.2 hPa Calm   1.6 km/h 79% 0.0 mm 7 W/m2
21:34 21.9 °C 18.1 °C 1012.2 hPa Calm     79% 0.0 mm 5 W/m2
21:39 21.8 °C 18.2 °C 1012.5 hPa Calm     80% 0.0 mm 5 W/m2
21:44 21.7 °C 18.3 °C 1012.5 hPa Calm   3.2 km/h 81% 0.0 mm 0 W/m2
21:49 21.6 °C 18.2 °C 1012.5 hPa Calm     81% 0.0 mm 0 W/m2
21:54 21.4 °C 18 °C 1012.9 hPa Calm   1.6 km/h 81% 0.0 mm 0 W/m2
21:59 21.3 °C 18.1 °C 1012.9 hPa Calm   1.6 km/h 82% 0.0 mm 0 W/m2
22:04 21.2 °C 18 °C 1012.9 hPa Calm     82% 0.0 mm 0 W/m2
22:09 21.2 °C 18 °C 1012.9 hPa Calm   1.6 km/h 82% 0.0 mm 0 W/m2
22:14 21.1 °C 18.1 °C 1012.9 hPa Calm   1.6 km/h 83% 0.0 mm 0 W/m2
22:19 20.9 °C 17.9 °C 1012.9 hPa Calm     83% 0.0 mm 0 W/m2
22:24 20.8 °C 17.8 °C 1012.9 hPa Calm     83% 0.0 mm 0 W/m2
22:29 20.7 °C 17.7 °C 1012.9 hPa Calm     83% 0.0 mm 0 W/m2
22:34 20.6 °C 17.8 °C 1012.9 hPa Calm     84% 0.0 mm 0 W/m2
22:39 20.4 °C 17.4 °C 1012.9 hPa Calm     83% 0.0 mm 0 W/m2
22:44 20.3 °C 17.5 °C 1012.9 hPa South 1.4 km/h 3.2 km/h 84% 0.0 mm 0 W/m2
22:49 20.2 °C 17.4 °C 1012.9 hPa South 1.4 km/h 3.2 km/h 84% 0.0 mm 0 W/m2
22:54 20 °C 17.2 °C 1012.9 hPa South 1.4 km/h 1.6 km/h 84% 0.0 mm 0 W/m2
22:59 19.9 °C 17.1 °C 1012.9 hPa Calm   1.6 km/h 84% 0.0 mm 0 W/m2
23:04 19.8 °C 17.2 °C 1012.9 hPa Calm     85% 0.0 mm 0 W/m2
23:09 19.7 °C 17.1 °C 1012.9 hPa Calm     85% 0.0 mm 0 W/m2
23:14 19.6 °C 17 °C 1012.9 hPa Calm     85% 0.0 mm 0 W/m2
23:19 19.6 °C 17 °C 1012.9 hPa Calm     85% 0.0 mm 0 W/m2
23:24 19.4 °C 16.8 °C 1012.9 hPa Calm     85% 0.0 mm 0 W/m2
23:29 19.3 °C 16.9 °C 1012.9 hPa Calm     86% 0.0 mm 0 W/m2
23:34 19.3 °C 16.9 °C 1012.9 hPa Calm   1.6 km/h 86% 0.0 mm 0 W/m2
23:39 19.2 °C 16.8 °C 1012.9 hPa Calm     86% 0.0 mm 0 W/m2
23:44 19.1 °C 16.7 °C 1012.9 hPa Calm     86% 0.0 mm 0 W/m2
23:49 19 °C 16.6 °C 1012.9 hPa Calm     86% 0.0 mm 0 W/m2
23:54 18.9 °C 16.5 °C 1012.9 hPa Calm     86% 0.0 mm 0 W/m2
23:59 18.8 °C 16.4 °C 1012.9 hPa Calm     86% 0.0 mm 0 W/m2
Juneau County Weather
Compliments of Weather Underground - 4 mb